VTK605 UMGG-UMBB
Flight info
| Callsign | VTK605 |
|---|---|
| Flight time | 1h 24m |
| Altitude | 18000 |
| Route | DOZAL T535 PNK P851 DIVIM |
| Aircraft | C414/L-SBDFGRY/S |
Departure
| Time | 2026-05-07 15:23 |
|---|---|
| Airport | Gomel Airport (UMGG) |
Arrival
| Time | 2026-05-07 16:48 |
|---|---|
| Airport | Brest International Airport (UMBB) |
| Time | Latitude | Longitude | Altitude | Speed | Heading |
|---|---|---|---|---|---|
| 2026-05-07 15:14 | 52.52527 | 31.01138 | 449 ft | 0 kts | 20° |
| 2026-05-07 15:19 | 52.52545 | 31.01160 | 449 ft | 11 kts | 72° |
| 2026-05-07 15:19 | 52.52516 | 31.01312 | 448 ft | 17 kts | 110° |
| 2026-05-07 15:19 | 52.52468 | 31.01578 | 449 ft | 17 kts | 66° |
| 2026-05-07 15:20 | 52.52499 | 31.01745 | 448 ft | 16 kts | 96° |
| 2026-05-07 15:20 | 52.52486 | 31.01875 | 448 ft | 19 kts | 111° |
| 2026-05-07 15:20 | 52.52435 | 31.02093 | 448 ft | 22 kts | 110° |
| 2026-05-07 15:20 | 52.52379 | 31.02336 | 448 ft | 24 kts | 110° |
| 2026-05-07 15:21 | 52.52318 | 31.02600 | 448 ft | 26 kts | 111° |
| 2026-05-07 15:21 | 52.52250 | 31.02885 | 448 ft | 28 kts | 111° |
| 2026-05-07 15:21 | 52.52187 | 31.03156 | 448 ft | 21 kts | 110° |
| 2026-05-07 15:21 | 52.52182 | 31.03342 | 448 ft | 16 kts | 19° |
| 2026-05-07 15:22 | 52.52275 | 31.03389 | 449 ft | 12 kts | 5° |
| 2026-05-07 15:22 | 52.52329 | 31.03282 | 451 ft | 19 kts | 290° |
| 2026-05-07 15:22 | 52.52432 | 31.02816 | 450 ft | 66 kts | 291° |
| 2026-05-07 15:22 | 52.52645 | 31.01923 | 455 ft | 98 kts | 290° |
| 2026-05-07 15:23 | 52.52902 | 31.00834 | 583 ft | 106 kts | 283° |
| 2026-05-07 15:23 | 52.53170 | 30.99662 | 745 ft | 113 kts | 285° |
| 2026-05-07 15:23 | 52.53469 | 30.98425 | 931 ft | 125 kts | 287° |
| 2026-05-07 15:23 | 52.53801 | 30.97014 | 1110 ft | 137 kts | 286° |
| 2026-05-07 15:24 | 52.54155 | 30.95512 | 1311 ft | 144 kts | 288° |
| 2026-05-07 15:24 | 52.54524 | 30.93940 | 1489 ft | 148 kts | 287° |
| 2026-05-07 15:24 | 52.54623 | 30.92299 | 1674 ft | 146 kts | 251° |
| 2026-05-07 15:24 | 52.54032 | 30.90950 | 1869 ft | 149 kts | 227° |
| 2026-05-07 15:25 | 52.53277 | 30.89766 | 2075 ft | 154 kts | 226° |
| 2026-05-07 15:25 | 52.52514 | 30.88555 | 2363 ft | 151 kts | 226° |
| 2026-05-07 15:25 | 52.51759 | 30.87361 | 2605 ft | 151 kts | 225° |
| 2026-05-07 15:25 | 52.51029 | 30.86142 | 2843 ft | 149 kts | 234° |
| 2026-05-07 15:26 | 52.50642 | 30.84578 | 3039 ft | 153 kts | 253° |
| 2026-05-07 15:26 | 52.50363 | 30.82898 | 3292 ft | 151 kts | 251° |
| 2026-05-07 15:26 | 52.50078 | 30.81251 | 3512 ft | 150 kts | 253° |
| 2026-05-07 15:26 | 52.49798 | 30.79600 | 3729 ft | 150 kts | 252° |
| 2026-05-07 15:27 | 52.49518 | 30.77951 | 3926 ft | 152 kts | 252° |
| 2026-05-07 15:27 | 52.49231 | 30.76259 | 4144 ft | 153 kts | 251° |
| 2026-05-07 15:27 | 52.48944 | 30.74583 | 4378 ft | 153 kts | 251° |
| 2026-05-07 15:27 | 52.48660 | 30.72911 | 4600 ft | 151 kts | 252° |
| 2026-05-07 15:28 | 52.48378 | 30.71250 | 4772 ft | 153 kts | 252° |
| 2026-05-07 15:28 | 52.48090 | 30.69560 | 4945 ft | 154 kts | 251° |
| 2026-05-07 15:28 | 52.47802 | 30.67875 | 5166 ft | 154 kts | 251° |
| 2026-05-07 15:28 | 52.47512 | 30.66193 | 5405 ft | 153 kts | 251° |
| 2026-05-07 15:29 | 52.47222 | 30.64508 | 5628 ft | 154 kts | 251° |
| 2026-05-07 15:29 | 52.46931 | 30.62808 | 5842 ft | 155 kts | 251° |
| 2026-05-07 15:29 | 52.46639 | 30.61102 | 6041 ft | 156 kts | 251° |
| 2026-05-07 15:29 | 52.46346 | 30.59390 | 6232 ft | 156 kts | 251° |
| 2026-05-07 15:30 | 52.46049 | 30.57671 | 6430 ft | 157 kts | 251° |
| 2026-05-07 15:30 | 52.45753 | 30.55951 | 6652 ft | 156 kts | 251° |
| 2026-05-07 15:30 | 52.45457 | 30.54235 | 6851 ft | 157 kts | 251° |
| 2026-05-07 15:30 | 52.45159 | 30.52503 | 7051 ft | 158 kts | 251° |
| 2026-05-07 15:31 | 52.44859 | 30.50769 | 7240 ft | 160 kts | 250° |
| 2026-05-07 15:31 | 52.44556 | 30.49016 | 7466 ft | 159 kts | 251° |
| 2026-05-07 15:31 | 52.44255 | 30.47273 | 7679 ft | 159 kts | 250° |
| 2026-05-07 15:31 | 52.43950 | 30.45518 | 7889 ft | 160 kts | 250° |
| 2026-05-07 15:32 | 52.43643 | 30.43746 | 8095 ft | 163 kts | 250° |
| 2026-05-07 15:32 | 52.43337 | 30.41978 | 8305 ft | 163 kts | 250° |
| 2026-05-07 15:32 | 52.43021 | 30.40166 | 8515 ft | 163 kts | 250° |
| 2026-05-07 15:32 | 52.42710 | 30.38379 | 8739 ft | 163 kts | 250° |
| 2026-05-07 15:33 | 52.42403 | 30.36608 | 8932 ft | 164 kts | 250° |
| 2026-05-07 15:33 | 52.42088 | 30.34808 | 9143 ft | 165 kts | 250° |
| 2026-05-07 15:33 | 52.41772 | 30.32988 | 9336 ft | 167 kts | 250° |
| 2026-05-07 15:33 | 52.41454 | 30.31164 | 9569 ft | 166 kts | 250° |
| 2026-05-07 15:34 | 52.41129 | 30.29311 | 9752 ft | 168 kts | 250° |
| 2026-05-07 15:34 | 52.40858 | 30.27470 | 9942 ft | 169 kts | 253° |
| 2026-05-07 15:34 | 52.40581 | 30.25598 | 10124 ft | 169 kts | 251° |
| 2026-05-07 15:34 | 52.40302 | 30.23725 | 10324 ft | 169 kts | 252° |
| 2026-05-07 15:35 | 52.40027 | 30.21840 | 10510 ft | 171 kts | 252° |
| 2026-05-07 15:35 | 52.39752 | 30.19952 | 10733 ft | 170 kts | 252° |
| 2026-05-07 15:35 | 52.39477 | 30.18066 | 10916 ft | 171 kts | 252° |
| 2026-05-07 15:35 | 52.39202 | 30.16178 | 11095 ft | 171 kts | 252° |
| 2026-05-07 15:36 | 52.38924 | 30.14277 | 11278 ft | 172 kts | 252° |
| 2026-05-07 15:36 | 52.38645 | 30.12375 | 11458 ft | 172 kts | 252° |
| 2026-05-07 15:36 | 52.38369 | 30.10486 | 11722 ft | 170 kts | 252° |
| 2026-05-07 15:36 | 52.38091 | 30.08602 | 11893 ft | 172 kts | 252° |
| 2026-05-07 15:37 | 52.37811 | 30.06692 | 12064 ft | 172 kts | 252° |
| 2026-05-07 15:37 | 52.37532 | 30.04790 | 12241 ft | 173 kts | 252° |
| 2026-05-07 15:37 | 52.37249 | 30.02869 | 12418 ft | 174 kts | 252° |
| 2026-05-07 15:37 | 52.36965 | 30.00944 | 12602 ft | 174 kts | 252° |
| 2026-05-07 15:38 | 52.36680 | 29.99011 | 12786 ft | 175 kts | 252° |
| 2026-05-07 15:38 | 52.36393 | 29.97071 | 12974 ft | 175 kts | 252° |
| 2026-05-07 15:38 | 52.36106 | 29.95128 | 13164 ft | 176 kts | 252° |
| 2026-05-07 15:38 | 52.35817 | 29.93178 | 13344 ft | 176 kts | 252° |
| 2026-05-07 15:39 | 52.35527 | 29.91223 | 13509 ft | 178 kts | 252° |
| 2026-05-07 15:39 | 52.35235 | 29.89252 | 13690 ft | 179 kts | 252° |
| 2026-05-07 15:39 | 52.34941 | 29.87275 | 13864 ft | 179 kts | 252° |
| 2026-05-07 15:39 | 52.34647 | 29.85296 | 14038 ft | 179 kts | 252° |
| 2026-05-07 15:40 | 52.34351 | 29.83318 | 14186 ft | 180 kts | 252° |
| 2026-05-07 15:40 | 52.34053 | 29.81327 | 14331 ft | 181 kts | 252° |
| 2026-05-07 15:40 | 52.33755 | 29.79331 | 14491 ft | 181 kts | 252° |
| 2026-05-07 15:40 | 52.33460 | 29.77351 | 14646 ft | 181 kts | 252° |
| 2026-05-07 15:41 | 52.33160 | 29.75347 | 14815 ft | 182 kts | 252° |
| 2026-05-07 15:41 | 52.32857 | 29.73338 | 14969 ft | 182 kts | 252° |
| 2026-05-07 15:41 | 52.32555 | 29.71324 | 15129 ft | 183 kts | 253° |
| 2026-05-07 15:41 | 52.32251 | 29.69302 | 15298 ft | 183 kts | 253° |
| 2026-05-07 15:42 | 52.31947 | 29.67283 | 15456 ft | 183 kts | 253° |
| 2026-05-07 15:42 | 52.31641 | 29.65255 | 15612 ft | 184 kts | 253° |
| 2026-05-07 15:42 | 52.31335 | 29.63227 | 15763 ft | 184 kts | 253° |
| 2026-05-07 15:42 | 52.31025 | 29.61171 | 15926 ft | 185 kts | 253° |
| 2026-05-07 15:43 | 52.30718 | 29.59148 | 16092 ft | 185 kts | 253° |
| 2026-05-07 15:43 | 52.30409 | 29.57108 | 16243 ft | 186 kts | 253° |
| 2026-05-07 15:43 | 52.30097 | 29.55056 | 16391 ft | 186 kts | 253° |
| 2026-05-07 15:43 | 52.29786 | 29.53002 | 16550 ft | 186 kts | 253° |
| 2026-05-07 15:44 | 52.29473 | 29.50945 | 16705 ft | 187 kts | 253° |
| 2026-05-07 15:44 | 52.29158 | 29.48881 | 16855 ft | 187 kts | 253° |
| 2026-05-07 15:44 | 52.28842 | 29.46811 | 17005 ft | 188 kts | 253° |
| 2026-05-07 15:44 | 52.28530 | 29.44765 | 17148 ft | 188 kts | 253° |
| 2026-05-07 15:45 | 52.28212 | 29.42686 | 17311 ft | 189 kts | 253° |
| 2026-05-07 15:45 | 52.27894 | 29.40607 | 17465 ft | 189 kts | 253° |
| 2026-05-07 15:45 | 52.27575 | 29.38526 | 17615 ft | 189 kts | 253° |
| 2026-05-07 15:45 | 52.27254 | 29.36435 | 17762 ft | 190 kts | 253° |
| 2026-05-07 15:46 | 52.26606 | 29.32213 | 17895 ft | 197 kts | 254° |
| 2026-05-07 15:46 | 52.26266 | 29.30016 | 17900 ft | 202 kts | 254° |
| 2026-05-07 15:46 | 52.25920 | 29.27778 | 17906 ft | 205 kts | 254° |
| 2026-05-07 15:47 | 52.25570 | 29.25509 | 17907 ft | 207 kts | 254° |
| 2026-05-07 15:47 | 52.25216 | 29.23222 | 17907 ft | 209 kts | 254° |
| 2026-05-07 15:47 | 52.24859 | 29.20918 | 17907 ft | 210 kts | 254° |
| 2026-05-07 15:47 | 52.24501 | 29.18607 | 17905 ft | 211 kts | 254° |
| 2026-05-07 15:48 | 52.24140 | 29.16287 | 17905 ft | 211 kts | 254° |
| 2026-05-07 15:48 | 52.23779 | 29.13959 | 17906 ft | 212 kts | 253° |
| 2026-05-07 15:48 | 52.23415 | 29.11627 | 17907 ft | 212 kts | 254° |
| 2026-05-07 15:48 | 52.23052 | 29.09297 | 17904 ft | 212 kts | 254° |
| 2026-05-07 15:49 | 52.22687 | 29.06967 | 17903 ft | 212 kts | 254° |
| 2026-05-07 15:49 | 52.22322 | 29.04634 | 17900 ft | 212 kts | 253° |
| 2026-05-07 15:49 | 52.21955 | 29.02298 | 17900 ft | 212 kts | 253° |
| 2026-05-07 15:49 | 52.21590 | 28.99972 | 17895 ft | 212 kts | 253° |
| 2026-05-07 15:50 | 52.21225 | 28.97643 | 17897 ft | 212 kts | 253° |
| 2026-05-07 15:50 | 52.20858 | 28.95317 | 17895 ft | 212 kts | 253° |
| 2026-05-07 15:50 | 52.20491 | 28.92984 | 17895 ft | 212 kts | 253° |
| 2026-05-07 15:50 | 52.20124 | 28.90657 | 17896 ft | 212 kts | 253° |
| 2026-05-07 15:51 | 52.19755 | 28.88327 | 17895 ft | 212 kts | 253° |
| 2026-05-07 15:51 | 52.19386 | 28.85996 | 17895 ft | 212 kts | 253° |
| 2026-05-07 15:51 | 52.19017 | 28.83662 | 17895 ft | 213 kts | 253° |
| 2026-05-07 15:51 | 52.18647 | 28.81333 | 17896 ft | 212 kts | 253° |
| 2026-05-07 15:52 | 52.18276 | 28.79007 | 17892 ft | 211 kts | 254° |
| 2026-05-07 15:52 | 52.18130 | 28.76628 | 17894 ft | 213 kts | 268° |
| 2026-05-07 15:52 | 52.18147 | 28.74216 | 17905 ft | 213 kts | 266° |
| 2026-05-07 15:52 | 52.18140 | 28.71802 | 17903 ft | 213 kts | 266° |
| 2026-05-07 15:53 | 52.18137 | 28.69422 | 17896 ft | 213 kts | 266° |
| 2026-05-07 15:53 | 52.18137 | 28.67012 | 17895 ft | 213 kts | 266° |
| 2026-05-07 15:53 | 52.18136 | 28.64602 | 17895 ft | 213 kts | 266° |
| 2026-05-07 15:53 | 52.18133 | 28.62194 | 17895 ft | 213 kts | 266° |
| 2026-05-07 15:54 | 52.18129 | 28.59781 | 17897 ft | 213 kts | 266° |
| 2026-05-07 15:54 | 52.18127 | 28.57368 | 17897 ft | 213 kts | 266° |
| 2026-05-07 15:54 | 52.18124 | 28.54955 | 17898 ft | 213 kts | 266° |
| 2026-05-07 15:54 | 52.18119 | 28.52541 | 17898 ft | 213 kts | 266° |
| 2026-05-07 15:55 | 52.18115 | 28.50134 | 17895 ft | 213 kts | 266° |
| 2026-05-07 15:55 | 52.18109 | 28.47713 | 17895 ft | 213 kts | 266° |
| 2026-05-07 15:55 | 52.18104 | 28.45300 | 17895 ft | 213 kts | 266° |
| 2026-05-07 15:55 | 52.18098 | 28.42884 | 17894 ft | 213 kts | 266° |
| 2026-05-07 15:56 | 52.18091 | 28.40478 | 17895 ft | 213 kts | 266° |
| 2026-05-07 15:56 | 52.18083 | 28.38069 | 17894 ft | 213 kts | 266° |
| 2026-05-07 15:56 | 52.18076 | 28.35662 | 17894 ft | 212 kts | 266° |
| 2026-05-07 15:56 | 52.18069 | 28.33256 | 17894 ft | 213 kts | 266° |
| 2026-05-07 15:57 | 52.18059 | 28.30847 | 17894 ft | 212 kts | 266° |
| 2026-05-07 15:57 | 52.18050 | 28.28438 | 17895 ft | 213 kts | 266° |
| 2026-05-07 15:57 | 52.18041 | 28.26030 | 17895 ft | 213 kts | 266° |
| 2026-05-07 15:57 | 52.18031 | 28.23613 | 17894 ft | 213 kts | 266° |
| 2026-05-07 15:58 | 52.18020 | 28.21205 | 17895 ft | 213 kts | 266° |
| 2026-05-07 15:58 | 52.18009 | 28.18826 | 17898 ft | 213 kts | 266° |
| 2026-05-07 15:58 | 52.17997 | 28.16390 | 17899 ft | 212 kts | 265° |
| 2026-05-07 15:58 | 52.17986 | 28.13986 | 17899 ft | 212 kts | 265° |
| 2026-05-07 15:59 | 52.17974 | 28.11583 | 17899 ft | 212 kts | 265° |
| 2026-05-07 15:59 | 52.17960 | 28.09223 | 17899 ft | 211 kts | 265° |
| 2026-05-07 15:59 | 52.17946 | 28.06835 | 17893 ft | 211 kts | 265° |
| 2026-05-07 15:59 | 52.17933 | 28.04446 | 17894 ft | 211 kts | 265° |
| 2026-05-07 16:00 | 52.17918 | 28.02059 | 17892 ft | 210 kts | 265° |
| 2026-05-07 16:00 | 52.17904 | 27.99673 | 17894 ft | 210 kts | 265° |
| 2026-05-07 16:00 | 52.17888 | 27.97295 | 17894 ft | 210 kts | 265° |
| 2026-05-07 16:00 | 52.17878 | 27.95689 | 17895 ft | 210 kts | 265° |
| 2026-05-07 16:01 | 52.17862 | 27.93308 | 17895 ft | 210 kts | 265° |
| 2026-05-07 16:01 | 52.17846 | 27.90930 | 17895 ft | 210 kts | 265° |
| 2026-05-07 16:01 | 52.17829 | 27.88578 | 17895 ft | 210 kts | 265° |
| 2026-05-07 16:01 | 52.17811 | 27.86162 | 17896 ft | 210 kts | 265° |
| 2026-05-07 16:02 | 52.17793 | 27.83806 | 17895 ft | 210 kts | 265° |
| 2026-05-07 16:02 | 52.17775 | 27.81424 | 17893 ft | 210 kts | 265° |
| 2026-05-07 16:02 | 52.17756 | 27.79042 | 17887 ft | 210 kts | 266° |
| 2026-05-07 16:02 | 52.17736 | 27.76664 | 17886 ft | 210 kts | 266° |
| 2026-05-07 16:03 | 52.17717 | 27.74288 | 17887 ft | 209 kts | 266° |
| 2026-05-07 16:03 | 52.17697 | 27.71928 | 17886 ft | 209 kts | 266° |
| 2026-05-07 16:03 | 52.17675 | 27.69547 | 17886 ft | 209 kts | 266° |
| 2026-05-07 16:03 | 52.17654 | 27.67178 | 17886 ft | 209 kts | 266° |
| 2026-05-07 16:04 | 52.17632 | 27.64809 | 17883 ft | 209 kts | 266° |
| 2026-05-07 16:04 | 52.17610 | 27.62470 | 17898 ft | 208 kts | 266° |
| 2026-05-07 16:04 | 52.17587 | 27.60100 | 17890 ft | 210 kts | 266° |
| 2026-05-07 16:04 | 52.17564 | 27.57728 | 17892 ft | 209 kts | 266° |
| 2026-05-07 16:05 | 52.17540 | 27.55364 | 17894 ft | 208 kts | 266° |
| 2026-05-07 16:05 | 52.17513 | 27.52985 | 17897 ft | 210 kts | 266° |
| 2026-05-07 16:05 | 52.17491 | 27.50605 | 17895 ft | 210 kts | 266° |
| 2026-05-07 16:05 | 52.17467 | 27.48234 | 17893 ft | 209 kts | 266° |
| 2026-05-07 16:06 | 52.17441 | 27.45853 | 17891 ft | 209 kts | 266° |
| 2026-05-07 16:06 | 52.17419 | 27.43482 | 17891 ft | 210 kts | 266° |
| 2026-05-07 16:06 | 52.17392 | 27.41119 | 17890 ft | 207 kts | 266° |
| 2026-05-07 16:06 | 52.17364 | 27.38773 | 17886 ft | 208 kts | 266° |
| 2026-05-07 16:07 | 52.17335 | 27.36417 | 17886 ft | 208 kts | 266° |
| 2026-05-07 16:07 | 52.17307 | 27.34058 | 17886 ft | 208 kts | 266° |
| 2026-05-07 16:07 | 52.17279 | 27.31698 | 17886 ft | 209 kts | 266° |
| 2026-05-07 16:07 | 52.17250 | 27.29328 | 17886 ft | 210 kts | 266° |
| 2026-05-07 16:08 | 52.17221 | 27.26955 | 17886 ft | 210 kts | 265° |
| 2026-05-07 16:08 | 52.17191 | 27.24580 | 17887 ft | 210 kts | 266° |
| 2026-05-07 16:08 | 52.17161 | 27.22209 | 17887 ft | 209 kts | 266° |
| 2026-05-07 16:08 | 52.17130 | 27.19848 | 17886 ft | 209 kts | 265° |
| 2026-05-07 16:09 | 52.17099 | 27.17470 | 17889 ft | 209 kts | 265° |
| 2026-05-07 16:09 | 52.17066 | 27.15120 | 17888 ft | 208 kts | 265° |
| 2026-05-07 16:09 | 52.17036 | 27.12753 | 17888 ft | 209 kts | 265° |
| 2026-05-07 16:09 | 52.17000 | 27.10383 | 17889 ft | 209 kts | 265° |
| 2026-05-07 16:10 | 52.16967 | 27.08047 | 17888 ft | 208 kts | 265° |
| 2026-05-07 16:10 | 52.16935 | 27.05683 | 17891 ft | 210 kts | 265° |
| 2026-05-07 16:10 | 52.16904 | 27.03307 | 17891 ft | 210 kts | 265° |
| 2026-05-07 16:10 | 52.16869 | 27.00937 | 17891 ft | 209 kts | 264° |
| 2026-05-07 16:11 | 52.16834 | 26.98575 | 17891 ft | 208 kts | 265° |
| 2026-05-07 16:11 | 52.16800 | 26.96218 | 17891 ft | 208 kts | 264° |
| 2026-05-07 16:11 | 52.16762 | 26.93859 | 17888 ft | 208 kts | 264° |
| 2026-05-07 16:11 | 52.16725 | 26.91499 | 17887 ft | 208 kts | 264° |
| 2026-05-07 16:12 | 52.16689 | 26.89143 | 17881 ft | 208 kts | 264° |
| 2026-05-07 16:12 | 52.16652 | 26.86791 | 17885 ft | 208 kts | 264° |
| 2026-05-07 16:12 | 52.16615 | 26.84427 | 17885 ft | 208 kts | 264° |
| 2026-05-07 16:12 | 52.16582 | 26.82076 | 17886 ft | 208 kts | 264° |
| 2026-05-07 16:13 | 52.16547 | 26.79713 | 17886 ft | 208 kts | 265° |
| 2026-05-07 16:13 | 52.16512 | 26.77354 | 17888 ft | 208 kts | 264° |
| 2026-05-07 16:13 | 52.16474 | 26.75006 | 17887 ft | 208 kts | 264° |
| 2026-05-07 16:13 | 52.16439 | 26.72654 | 17887 ft | 208 kts | 264° |
| 2026-05-07 16:14 | 52.16403 | 26.70301 | 17887 ft | 208 kts | 264° |
| 2026-05-07 16:14 | 52.16366 | 26.67950 | 17885 ft | 208 kts | 264° |
| 2026-05-07 16:14 | 52.16327 | 26.65595 | 17887 ft | 208 kts | 264° |
| 2026-05-07 16:14 | 52.16290 | 26.63274 | 17887 ft | 208 kts | 264° |
| 2026-05-07 16:15 | 52.16251 | 26.60891 | 17883 ft | 207 kts | 264° |
| 2026-05-07 16:15 | 52.16212 | 26.58579 | 17883 ft | 207 kts | 264° |
| 2026-05-07 16:15 | 52.16172 | 26.56228 | 17883 ft | 207 kts | 264° |
| 2026-05-07 16:15 | 52.16133 | 26.53879 | 17883 ft | 207 kts | 264° |
| 2026-05-07 16:16 | 52.16092 | 26.51532 | 17884 ft | 208 kts | 264° |
| 2026-05-07 16:16 | 52.16051 | 26.49180 | 17890 ft | 208 kts | 263° |
| 2026-05-07 16:16 | 52.16009 | 26.46825 | 17891 ft | 208 kts | 263° |
| 2026-05-07 16:16 | 52.15967 | 26.44477 | 17890 ft | 207 kts | 263° |
| 2026-05-07 16:17 | 52.15926 | 26.42137 | 17887 ft | 207 kts | 263° |
| 2026-05-07 16:17 | 52.15883 | 26.39801 | 17885 ft | 207 kts | 263° |
| 2026-05-07 16:17 | 52.15840 | 26.37458 | 17884 ft | 207 kts | 263° |
| 2026-05-07 16:17 | 52.15796 | 26.35112 | 17887 ft | 207 kts | 263° |
| 2026-05-07 16:18 | 52.15752 | 26.32772 | 17890 ft | 207 kts | 263° |
| 2026-05-07 16:18 | 52.15707 | 26.30427 | 17890 ft | 207 kts | 263° |
| 2026-05-07 16:18 | 52.15662 | 26.28100 | 17888 ft | 206 kts | 263° |
| 2026-05-07 16:18 | 52.15618 | 26.25767 | 17887 ft | 206 kts | 263° |
| 2026-05-07 16:19 | 52.15571 | 26.23441 | 17890 ft | 206 kts | 263° |
| 2026-05-07 16:19 | 52.15525 | 26.21105 | 17891 ft | 206 kts | 263° |
| 2026-05-07 16:19 | 52.15479 | 26.18772 | 17890 ft | 206 kts | 263° |
| 2026-05-07 16:19 | 52.15431 | 26.16439 | 17890 ft | 206 kts | 263° |
| 2026-05-07 16:20 | 52.15383 | 26.14101 | 17887 ft | 207 kts | 263° |
| 2026-05-07 16:20 | 52.15404 | 26.11761 | 17888 ft | 208 kts | 268° |
| 2026-05-07 16:20 | 52.15502 | 26.09403 | 17888 ft | 208 kts | 268° |
| 2026-05-07 16:20 | 52.15588 | 26.07047 | 17889 ft | 209 kts | 268° |
| 2026-05-07 16:21 | 52.15675 | 26.04686 | 17892 ft | 209 kts | 268° |
| 2026-05-07 16:21 | 52.15761 | 26.02329 | 17892 ft | 209 kts | 268° |
| 2026-05-07 16:21 | 52.15849 | 25.99968 | 17891 ft | 209 kts | 268° |
| 2026-05-07 16:21 | 52.15935 | 25.97608 | 17892 ft | 209 kts | 268° |
| 2026-05-07 16:22 | 52.16023 | 25.95248 | 17906 ft | 209 kts | 268° |
| 2026-05-07 16:22 | 52.16107 | 25.92908 | 17891 ft | 210 kts | 268° |
| 2026-05-07 16:22 | 52.16194 | 25.90531 | 17896 ft | 210 kts | 268° |
| 2026-05-07 16:22 | 52.16280 | 25.88147 | 17896 ft | 210 kts | 268° |
| 2026-05-07 16:23 | 52.16364 | 25.85773 | 17894 ft | 210 kts | 268° |
| 2026-05-07 16:23 | 52.16448 | 25.83397 | 17894 ft | 210 kts | 268° |
| 2026-05-07 16:23 | 52.16533 | 25.81016 | 17893 ft | 210 kts | 268° |
| 2026-05-07 16:23 | 52.16616 | 25.78640 | 17893 ft | 210 kts | 268° |
| 2026-05-07 16:24 | 52.16699 | 25.76260 | 17894 ft | 210 kts | 268° |
| 2026-05-07 16:24 | 52.16782 | 25.73883 | 17894 ft | 211 kts | 268° |
| 2026-05-07 16:24 | 52.16864 | 25.71503 | 17895 ft | 211 kts | 268° |
| 2026-05-07 16:24 | 52.16946 | 25.69121 | 17895 ft | 210 kts | 268° |
| 2026-05-07 16:25 | 52.17028 | 25.66741 | 17895 ft | 210 kts | 268° |
| 2026-05-07 16:25 | 52.17108 | 25.64365 | 17891 ft | 210 kts | 266° |
| 2026-05-07 16:25 | 52.17188 | 25.61982 | 17890 ft | 211 kts | 268° |
| 2026-05-07 16:25 | 52.17268 | 25.59600 | 17890 ft | 211 kts | 267° |
| 2026-05-07 16:26 | 52.17348 | 25.57210 | 17890 ft | 211 kts | 267° |
| 2026-05-07 16:26 | 52.17427 | 25.54826 | 17890 ft | 210 kts | 267° |
| 2026-05-07 16:26 | 52.17505 | 25.52474 | 17890 ft | 211 kts | 267° |
| 2026-05-07 16:26 | 52.17557 | 25.50863 | 17891 ft | 211 kts | 267° |
| 2026-05-07 16:27 | 52.17660 | 25.47696 | 17893 ft | 211 kts | 267° |
| 2026-05-07 16:27 | 52.17738 | 25.45306 | 17894 ft | 211 kts | 267° |
| 2026-05-07 16:27 | 52.17814 | 25.42919 | 17895 ft | 211 kts | 267° |
| 2026-05-07 16:27 | 52.17890 | 25.40523 | 17888 ft | 212 kts | 267° |
| 2026-05-07 16:28 | 52.17967 | 25.38116 | 17889 ft | 213 kts | 267° |
| 2026-05-07 16:28 | 52.18043 | 25.35708 | 17889 ft | 213 kts | 267° |
| 2026-05-07 16:28 | 52.18118 | 25.33306 | 17889 ft | 213 kts | 267° |
| 2026-05-07 16:28 | 52.18192 | 25.30900 | 17889 ft | 213 kts | 267° |
| 2026-05-07 16:29 | 52.18267 | 25.28481 | 17880 ft | 213 kts | 267° |
| 2026-05-07 16:29 | 52.18340 | 25.26027 | 17694 ft | 221 kts | 267° |
| 2026-05-07 16:29 | 52.18417 | 25.23493 | 17421 ft | 228 kts | 268° |
| 2026-05-07 16:29 | 52.18498 | 25.20878 | 17120 ft | 233 kts | 268° |
| 2026-05-07 16:30 | 52.18579 | 25.18220 | 16812 ft | 237 kts | 268° |
| 2026-05-07 16:30 | 52.18660 | 25.15525 | 16497 ft | 239 kts | 268° |
| 2026-05-07 16:30 | 52.18741 | 25.12821 | 16183 ft | 240 kts | 268° |
| 2026-05-07 16:30 | 52.18820 | 25.10101 | 15868 ft | 240 kts | 268° |
| 2026-05-07 16:31 | 52.18899 | 25.07381 | 15553 ft | 240 kts | 269° |
| 2026-05-07 16:31 | 52.18961 | 25.04660 | 15232 ft | 238 kts | 264° |
| 2026-05-07 16:31 | 52.18800 | 25.02010 | 14914 ft | 229 kts | 260° |
| 2026-05-07 16:31 | 52.18631 | 24.99499 | 14613 ft | 218 kts | 261° |
| 2026-05-07 16:32 | 52.18475 | 24.97089 | 14327 ft | 210 kts | 261° |
| 2026-05-07 16:32 | 52.18323 | 24.94743 | 14053 ft | 206 kts | 261° |
| 2026-05-07 16:32 | 52.18173 | 24.92444 | 13786 ft | 202 kts | 261° |
| 2026-05-07 16:32 | 52.18025 | 24.90176 | 13511 ft | 200 kts | 261° |
| 2026-05-07 16:33 | 52.17877 | 24.87942 | 13248 ft | 197 kts | 261° |
| 2026-05-07 16:33 | 52.17731 | 24.85732 | 12990 ft | 195 kts | 261° |
| 2026-05-07 16:33 | 52.17587 | 24.83546 | 12736 ft | 193 kts | 261° |
| 2026-05-07 16:33 | 52.17445 | 24.81398 | 12482 ft | 192 kts | 260° |
| 2026-05-07 16:34 | 52.17301 | 24.79236 | 12229 ft | 192 kts | 260° |
| 2026-05-07 16:34 | 52.17157 | 24.77069 | 11973 ft | 192 kts | 260° |
| 2026-05-07 16:34 | 52.17013 | 24.74907 | 11716 ft | 191 kts | 260° |
| 2026-05-07 16:34 | 52.16870 | 24.72765 | 11465 ft | 190 kts | 260° |
| 2026-05-07 16:35 | 52.16727 | 24.70636 | 11215 ft | 190 kts | 260° |
| 2026-05-07 16:35 | 52.16583 | 24.68503 | 10962 ft | 189 kts | 260° |
| 2026-05-07 16:35 | 52.16442 | 24.66385 | 10714 ft | 188 kts | 260° |
| 2026-05-07 16:35 | 52.16298 | 24.64272 | 10466 ft | 188 kts | 260° |
| 2026-05-07 16:36 | 52.16153 | 24.62161 | 10217 ft | 188 kts | 259° |
| 2026-05-07 16:36 | 52.16008 | 24.60049 | 9968 ft | 188 kts | 259° |
| 2026-05-07 16:36 | 52.15865 | 24.57933 | 9713 ft | 187 kts | 260° |
| 2026-05-07 16:36 | 52.15722 | 24.55837 | 9461 ft | 185 kts | 260° |
| 2026-05-07 16:37 | 52.15579 | 24.53765 | 9210 ft | 183 kts | 261° |
| 2026-05-07 16:37 | 52.15438 | 24.51705 | 8971 ft | 183 kts | 260° |
| 2026-05-07 16:37 | 52.15295 | 24.49641 | 8729 ft | 183 kts | 261° |
| 2026-05-07 16:37 | 52.15152 | 24.47584 | 8487 ft | 183 kts | 261° |
| 2026-05-07 16:38 | 52.15010 | 24.45527 | 8244 ft | 183 kts | 261° |
| 2026-05-07 16:38 | 52.14870 | 24.43479 | 8004 ft | 182 kts | 261° |
| 2026-05-07 16:38 | 52.14725 | 24.41431 | 7761 ft | 182 kts | 261° |
| 2026-05-07 16:38 | 52.14582 | 24.39385 | 7521 ft | 182 kts | 261° |
| 2026-05-07 16:39 | 52.14439 | 24.37333 | 7283 ft | 182 kts | 261° |
| 2026-05-07 16:39 | 52.14299 | 24.35284 | 7042 ft | 181 kts | 261° |
| 2026-05-07 16:39 | 52.14152 | 24.33240 | 6803 ft | 182 kts | 261° |
| 2026-05-07 16:39 | 52.14005 | 24.31191 | 6562 ft | 183 kts | 261° |
| 2026-05-07 16:40 | 52.13858 | 24.29134 | 6321 ft | 183 kts | 261° |
| 2026-05-07 16:40 | 52.13719 | 24.27078 | 6071 ft | 183 kts | 261° |
| 2026-05-07 16:40 | 52.13566 | 24.25030 | 5921 ft | 179 kts | 261° |
| 2026-05-07 16:40 | 52.13374 | 24.23069 | 5705 ft | 176 kts | 251° |
| 2026-05-07 16:41 | 52.12606 | 24.21536 | 5476 ft | 179 kts | 210° |
| 2026-05-07 16:41 | 52.11398 | 24.21195 | 5249 ft | 182 kts | 180° |
| 2026-05-07 16:41 | 52.10107 | 24.21209 | 5006 ft | 183 kts | 186° |
| 2026-05-07 16:41 | 52.08822 | 24.21061 | 4758 ft | 185 kts | 188° |
| 2026-05-07 16:42 | 52.07578 | 24.20783 | 4513 ft | 181 kts | 192° |
| 2026-05-07 16:42 | 52.06347 | 24.20347 | 4273 ft | 180 kts | 201° |
| 2026-05-07 16:42 | 52.05310 | 24.19297 | 4039 ft | 176 kts | 226° |
| 2026-05-07 16:42 | 52.04627 | 24.17675 | 3805 ft | 175 kts | 248° |
| 2026-05-07 16:43 | 52.04398 | 24.15751 | 3575 ft | 175 kts | 269° |
| 2026-05-07 16:43 | 52.04657 | 24.13822 | 3349 ft | 176 kts | 289° |
| 2026-05-07 16:43 | 52.05127 | 24.11977 | 3108 ft | 178 kts | 290° |
| 2026-05-07 16:43 | 52.05441 | 24.10721 | 2947 ft | 176 kts | 290° |
| 2026-05-07 16:44 | 52.05893 | 24.08916 | 2720 ft | 168 kts | 291° |
| 2026-05-07 16:44 | 52.06337 | 24.07166 | 2496 ft | 165 kts | 290° |
| 2026-05-07 16:44 | 52.06766 | 24.05460 | 2278 ft | 160 kts | 291° |
| 2026-05-07 16:44 | 52.07181 | 24.03795 | 2069 ft | 159 kts | 291° |
| 2026-05-07 16:45 | 52.07579 | 24.02211 | 1866 ft | 145 kts | 290° |
| 2026-05-07 16:45 | 52.07943 | 24.00768 | 1681 ft | 132 kts | 290° |
| 2026-05-07 16:45 | 52.08273 | 23.99450 | 1501 ft | 119 kts | 290° |
| 2026-05-07 16:45 | 52.08581 | 23.98251 | 1350 ft | 111 kts | 291° |
| 2026-05-07 16:46 | 52.08848 | 23.97103 | 1204 ft | 107 kts | 291° |
| 2026-05-07 16:46 | 52.09134 | 23.95998 | 1110 ft | 101 kts | 294° |
| 2026-05-07 16:46 | 52.09400 | 23.94949 | 958 ft | 103 kts | 291° |
| 2026-05-07 16:46 | 52.09682 | 23.93882 | 771 ft | 102 kts | 292° |
| 2026-05-07 16:47 | 52.09926 | 23.92832 | 658 ft | 96 kts | 294° |
| 2026-05-07 16:47 | 52.10213 | 23.91847 | 544 ft | 96 kts | 295° |
| 2026-05-07 16:47 | 52.10484 | 23.90869 | 469 ft | 91 kts | 295° |
| 2026-05-07 16:47 | 52.10705 | 23.90054 | 464 ft | 67 kts | 295° |
| 2026-05-07 16:48 | 52.10786 | 23.89764 | 465 ft | 13 kts | 291° |
| 2026-05-07 16:48 | 52.10835 | 23.89692 | 465 ft | 8 kts | 0° |
| 2026-05-07 16:48 | 52.10884 | 23.89718 | 465 ft | 7 kts | 27° |
| 2026-05-07 16:48 | 52.10933 | 23.89754 | 465 ft | 9 kts | 22° |
| 2026-05-07 16:49 | 52.10996 | 23.89776 | 465 ft | 10 kts | 336° |
| 2026-05-07 16:49 | 52.11042 | 23.89676 | 465 ft | 12 kts | 324° |
| 2026-05-07 16:49 | 52.11096 | 23.89609 | 465 ft | 8 kts | 289° |
| 2026-05-07 16:49 | 52.11097 | 23.89602 | 465 ft | 0 kts | 287° |